createdAt,value
2022-10-22T00:02:22.867Z,15.10
2022-10-22T00:04:50.216Z,13.70
2022-10-22T00:07:19.897Z,14.83
2022-10-22T00:09:46.638Z,14.00
2022-10-22T00:12:13.804Z,13.13
2022-10-22T00:14:40.240Z,14.07
2022-10-22T00:17:10.469Z,14.40
2022-10-22T00:19:37.772Z,13.97
2022-10-22T00:22:07.084Z,14.20
2022-10-22T00:24:34.215Z,15.23
2022-10-22T00:27:00.694Z,13.90
2022-10-22T00:29:27.195Z,15.10
2022-10-22T00:31:53.586Z,15.63
2022-10-22T00:34:21.333Z,13.47
2022-10-22T00:36:51.338Z,17.00
2022-10-22T00:39:18.710Z,17.23
2022-10-22T00:41:46.020Z,15.00
2022-10-22T00:44:50.971Z,15.10
2022-10-22T00:47:18.619Z,15.90
2022-10-22T00:49:46.551Z,14.90
2022-10-22T00:52:13.239Z,15.13
2022-10-22T00:54:39.886Z,14.87
2022-10-22T00:57:06.360Z,15.70
2022-10-22T00:59:32.992Z,15.43
2022-10-22T01:01:59.519Z,14.60
2022-10-22T01:04:25.882Z,14.40
2022-10-22T01:06:52.279Z,13.80
2022-10-22T01:09:25.003Z,16.33
2022-10-22T01:12:12.056Z,15.57
2022-10-22T01:14:41.447Z,15.30
2022-10-22T01:17:17.187Z,17.67
2022-10-22T01:19:43.538Z,16.23
2022-10-22T01:22:19.039Z,17.03
2022-10-22T01:25:00.233Z,19.07
2022-10-22T01:27:31.445Z,18.70
2022-10-22T01:30:00.993Z,17.93
2022-10-22T01:32:29.366Z,19.40
2022-10-22T01:34:58.704Z,19.27
2022-10-22T01:37:25.823Z,18.73
2022-10-22T01:39:53.089Z,19.50
2022-10-22T01:42:19.521Z,19.83
2022-10-22T01:44:48.790Z,17.40
2022-10-22T01:47:17.886Z,19.07
2022-10-22T01:49:47.262Z,17.97
2022-10-22T01:52:13.927Z,18.67
2022-10-22T01:54:45.510Z,17.07
2022-10-22T01:57:16.849Z,29.33
2022-10-22T02:00:01.808Z,28.13
2022-10-22T02:02:34.369Z,19.40
2022-10-22T02:05:03.623Z,20.03
2022-10-22T02:07:33.009Z,18.77
2022-10-22T02:10:00.780Z,16.37
2022-10-22T02:12:28.102Z,18.13
2022-10-22T02:14:55.552Z,19.57
2022-10-22T02:17:22.365Z,17.03
2022-10-22T02:20:00.654Z,18.60
2022-10-22T02:22:27.768Z,16.73
2022-10-22T02:24:54.156Z,17.10
2022-10-22T02:27:25.754Z,18.57
2022-10-22T02:30:00.003Z,18.33
2022-10-22T02:32:28.371Z,18.90
2022-10-22T02:34:55.898Z,18.97
2022-10-22T02:37:23.431Z,18.17
2022-10-22T02:39:51.119Z,18.47
2022-10-22T02:42:18.290Z,19.30
2022-10-22T02:44:44.602Z,19.30
2022-10-22T02:47:10.952Z,18.93
2022-10-22T02:49:37.262Z,19.00
2022-10-22T02:52:03.916Z,18.60
2022-10-22T02:54:30.275Z,18.20
2022-10-22T02:56:56.594Z,18.37
2022-10-22T02:59:22.939Z,25.47
2022-10-22T03:01:49.275Z,21.17
2022-10-22T03:04:15.598Z,17.53
2022-10-22T03:06:44.033Z,16.87
2022-10-22T03:09:10.615Z,17.43
2022-10-22T03:11:37.011Z,17.53
2022-10-22T03:14:03.756Z,16.83
2022-10-22T03:16:30.098Z,18.23
2022-10-22T03:18:56.434Z,18.67
2022-10-22T03:21:25.571Z,17.13
2022-10-22T03:23:52.266Z,15.63
2022-10-22T03:26:18.774Z,16.27
2022-10-22T03:28:46.828Z,15.57
2022-10-22T03:31:13.172Z,16.17
2022-10-22T03:33:39.494Z,17.37
2022-10-22T03:36:06.798Z,17.87
2022-10-22T03:38:34.563Z,19.37
2022-10-22T03:41:00.951Z,18.97
2022-10-22T03:43:27.434Z,19.67
2022-10-22T03:45:53.759Z,19.57
2022-10-22T03:48:20.134Z,19.97
2022-10-22T03:50:46.502Z,17.57
2022-10-22T03:53:13.215Z,15.00
2022-10-22T03:55:40.885Z,16.03
2022-10-22T03:58:07.240Z,15.90
2022-10-22T04:00:34.802Z,16.77
2022-10-22T04:03:01.377Z,15.77
2022-10-22T04:05:27.788Z,17.57
2022-10-22T04:07:54.185Z,16.60
2022-10-22T04:10:20.532Z,15.77
2022-10-22T04:12:47.549Z,16.77
2022-10-22T04:15:17.098Z,15.17
2022-10-22T04:17:43.854Z,17.03
2022-10-22T04:20:10.575Z,15.63
2022-10-22T04:22:37.360Z,18.70
2022-10-22T04:25:04.691Z,17.17
2022-10-22T04:27:31.887Z,15.70
2022-10-22T04:29:58.438Z,14.40
2022-10-22T04:32:25.279Z,15.37
2022-10-22T04:34:51.643Z,15.17
2022-10-22T04:37:17.994Z,16.20
2022-10-22T04:39:44.342Z,15.40
2022-10-22T04:42:11.027Z,13.73
2022-10-22T04:44:37.364Z,15.77
2022-10-22T04:47:03.918Z,15.73
2022-10-22T04:49:30.261Z,14.43
2022-10-22T04:51:56.601Z,15.37
2022-10-22T04:54:23.206Z,16.77
2022-10-22T04:56:49.521Z,15.40
2022-10-22T04:59:15.915Z,15.47
2022-10-22T05:01:44.000Z,15.20
2022-10-22T05:04:14.758Z,14.40
2022-10-22T05:06:41.650Z,15.10
2022-10-22T05:09:10.893Z,14.73
2022-10-22T05:11:38.374Z,15.47
2022-10-22T05:14:05.838Z,15.37
2022-10-22T05:16:32.746Z,16.00
2022-10-22T05:19:00.212Z,17.37
2022-10-22T05:21:26.918Z,18.23
2022-10-22T05:23:54.849Z,17.43
2022-10-22T05:26:22.515Z,17.03
2022-10-22T05:28:49.330Z,16.83
2022-10-22T05:31:16.642Z,18.23
2022-10-22T05:33:43.613Z,17.83
2022-10-22T05:36:12.354Z,19.10
2022-10-22T05:38:38.747Z,43.10
2022-10-22T05:41:07.175Z,23.97
2022-10-22T05:43:33.722Z,20.00
2022-10-22T05:46:08.162Z,18.73
2022-10-22T05:48:34.866Z,17.87
2022-10-22T05:51:04.513Z,18.53
2022-10-22T05:53:34.336Z,20.53
2022-10-22T05:56:01.784Z,17.23
2022-10-22T05:58:28.189Z,18.57
2022-10-22T06:00:54.621Z,17.63
2022-10-22T06:03:20.938Z,18.50
2022-10-22T06:05:47.268Z,17.00
2022-10-22T06:08:18.241Z,17.43
2022-10-22T06:10:45.690Z,19.03
2022-10-22T06:13:12.034Z,17.80
2022-10-22T06:15:38.373Z,18.73
2022-10-22T06:18:04.869Z,18.53
2022-10-22T06:20:31.307Z,17.37
2022-10-22T06:22:58.239Z,18.53
2022-10-22T06:25:24.577Z,19.57
2022-10-22T06:27:51.837Z,20.63
2022-10-22T06:30:18.181Z,19.43
2022-10-22T06:32:44.501Z,105.00
2022-10-22T06:35:10.839Z,27.97
2022-10-22T06:37:37.410Z,20.20
2022-10-22T06:40:03.945Z,18.67
2022-10-22T06:42:30.363Z,18.03
2022-10-22T06:44:56.724Z,19.03
2022-10-22T06:47:23.122Z,18.57
2022-10-22T06:49:50.144Z,17.23
2022-10-22T06:52:16.644Z,18.23
2022-10-22T06:54:42.971Z,17.50
2022-10-22T06:57:09.299Z,18.30
2022-10-22T06:59:35.691Z,17.30
2022-10-22T07:02:02.351Z,17.63
2022-10-22T07:04:28.680Z,17.60
2022-10-22T07:06:55.318Z,18.43
2022-10-22T07:09:21.668Z,17.43
2022-10-22T07:11:47.993Z,17.70
2022-10-22T07:14:14.834Z,17.57
2022-10-22T07:16:45.722Z,17.67
2022-10-22T07:19:12.637Z,18.83
2022-10-22T07:21:39.051Z,17.37
2022-10-22T07:24:05.570Z,18.07
2022-10-22T07:26:32.742Z,18.07
2022-10-22T07:29:03.274Z,18.00
2022-10-22T07:31:29.715Z,17.90
2022-10-22T07:33:56.233Z,19.47
2022-10-22T07:36:22.558Z,20.37
2022-10-22T07:38:53.032Z,19.40
2022-10-22T07:41:19.447Z,19.27
2022-10-22T07:43:46.299Z,19.77
2022-10-22T07:46:13.218Z,20.00
2022-10-22T07:48:39.618Z,18.50
2022-10-22T07:51:05.996Z,20.20
2022-10-22T07:53:32.865Z,21.80
2022-10-22T07:55:59.245Z,20.53
2022-10-22T07:58:25.646Z,18.20
2022-10-22T08:00:54.822Z,19.47
2022-10-22T08:03:21.242Z,17.30
2022-10-22T08:05:47.668Z,17.47
2022-10-22T08:08:15.875Z,16.63
2022-10-22T08:10:43.031Z,16.03
2022-10-22T08:13:09.530Z,16.83
2022-10-22T08:15:36.355Z,17.00
2022-10-22T08:18:02.866Z,15.50
2022-10-22T08:20:29.292Z,17.27
2022-10-22T08:22:55.710Z,18.30
2022-10-22T08:25:22.075Z,16.33
2022-10-22T08:27:48.566Z,16.50
2022-10-22T08:30:15.002Z,14.27
2022-10-22T08:32:41.674Z,14.40
2022-10-22T08:35:08.145Z,14.13
2022-10-22T08:37:34.573Z,12.33
2022-10-22T08:40:00.950Z,12.80
2022-10-22T08:42:39.927Z,11.53
2022-10-22T08:45:12.425Z,11.73
2022-10-22T08:47:59.275Z,11.37
2022-10-22T08:50:33.734Z,11.20
2022-10-22T08:53:02.486Z,10.77
2022-10-22T08:55:30.272Z,10.67
2022-10-22T08:58:21.291Z,9.60
2022-10-22T09:00:52.394Z,9.10
2022-10-22T09:03:34.642Z,8.43
2022-10-22T09:06:01.000Z,7.17
2022-10-22T09:08:27.418Z,7.83
2022-10-22T09:11:13.076Z,8.20
2022-10-22T09:13:43.558Z,7.73
2022-10-22T09:16:30.707Z,7.17
2022-10-22T09:19:26.435Z,6.97
2022-10-22T09:21:52.766Z,7.70
2022-10-22T09:24:34.427Z,8.50
2022-10-22T09:27:01.383Z,7.00
2022-10-22T09:29:32.609Z,6.30
2022-10-22T09:31:59.167Z,6.23
2022-10-22T09:34:25.518Z,6.07
2022-10-22T09:36:59.640Z,5.23
2022-10-22T09:39:27.375Z,5.20
2022-10-22T09:41:53.870Z,4.57
2022-10-22T09:44:20.490Z,3.75
2022-10-22T09:46:46.908Z,3.85
2022-10-22T09:49:14.818Z,4.30
2022-10-22T09:51:55.126Z,3.80
2022-10-22T09:54:26.288Z,3.80
2022-10-22T09:56:55.788Z,3.33
2022-10-22T09:59:28.138Z,3.42
2022-10-22T10:02:08.384Z,2.70
2022-10-22T10:04:47.528Z,3.40
2022-10-22T10:07:18.697Z,3.13
2022-10-22T10:09:45.354Z,3.50
2022-10-22T10:12:23.186Z,2.80
2022-10-22T10:15:08.625Z,2.85
2022-10-22T10:17:53.730Z,4.35
2022-10-22T10:20:29.256Z,4.20
2022-10-22T10:23:14.512Z,2.83
2022-10-22T10:25:59.700Z,3.08
2022-10-22T10:28:33.309Z,3.00
2022-10-22T10:31:11.939Z,2.67
2022-10-22T10:33:43.643Z,2.45
2022-10-22T10:36:15.743Z,2.75
2022-10-22T10:38:45.256Z,2.63
2022-10-22T10:41:20.630Z,2.08
2022-10-22T10:44:05.616Z,2.47
2022-10-22T10:46:48.412Z,2.20
2022-10-22T10:49:17.279Z,2.25
2022-10-22T10:51:59.590Z,1.90
2022-10-22T10:54:30.442Z,2.27
2022-10-22T10:56:56.836Z,1.83
2022-10-22T10:59:28.176Z,2.60
2022-10-22T11:01:54.549Z,2.30
2022-10-22T11:04:24.792Z,1.60
2022-10-22T11:06:58.642Z,2.03
2022-10-22T11:09:30.723Z,1.70
2022-10-22T11:11:59.884Z,2.70
2022-10-22T11:14:27.925Z,2.10
2022-10-22T11:17:01.719Z,2.07
2022-10-22T11:19:50.851Z,1.90
2022-10-22T11:22:35.836Z,1.97
2022-10-22T11:25:17.868Z,2.23
2022-10-22T11:27:53.541Z,3.30
2022-10-22T11:30:21.148Z,2.70
2022-10-22T11:32:49.741Z,2.23
2022-10-22T11:35:20.217Z,2.20
2022-10-22T11:37:50.356Z,2.30
2022-10-22T11:40:21.113Z,2.53
2022-10-22T11:42:53.435Z,2.10
2022-10-22T11:45:25.559Z,2.40
2022-10-22T11:48:10.383Z,1.90
2022-10-22T11:50:49.036Z,2.33
2022-10-22T11:53:15.352Z,2.40
2022-10-22T11:55:51.769Z,2.63
2022-10-22T11:58:45.119Z,2.10
2022-10-22T12:01:11.477Z,2.33
2022-10-22T12:03:43.929Z,1.80
2022-10-22T12:06:13.207Z,1.70
2022-10-22T12:08:48.897Z,2.20
2022-10-22T12:11:17.319Z,2.17
2022-10-22T12:13:49.645Z,1.92
2022-10-22T12:16:23.590Z,1.55
2022-10-22T12:19:03.015Z,2.10
2022-10-22T12:21:29.422Z,1.70
2022-10-22T12:23:55.816Z,1.98
2022-10-22T12:26:26.286Z,2.25
2022-10-22T12:28:56.919Z,1.70
2022-10-22T12:31:23.268Z,1.83
2022-10-22T12:33:55.862Z,2.23
2022-10-22T12:36:22.207Z,2.03
2022-10-22T12:38:48.748Z,1.90
2022-10-22T12:41:15.264Z,3.03
2022-10-22T12:43:41.625Z,2.23
2022-10-22T12:46:16.294Z,2.37
2022-10-22T12:48:44.009Z,2.30
2022-10-22T12:51:15.410Z,2.53
2022-10-22T12:53:46.842Z,2.60
2022-10-22T12:56:15.925Z,2.60
2022-10-22T12:58:43.821Z,2.30
2022-10-22T13:01:14.256Z,2.23
2022-10-22T13:03:42.783Z,2.40
2022-10-22T13:06:24.269Z,2.30
2022-10-22T13:09:02.406Z,2.43
2022-10-22T13:11:33.966Z,2.40
2022-10-22T13:14:17.999Z,2.90
2022-10-22T13:17:02.210Z,2.80
2022-10-22T13:19:39.582Z,2.60
2022-10-22T13:22:24.109Z,2.77
2022-10-22T13:24:53.745Z,2.70
2022-10-22T13:27:20.284Z,2.57
2022-10-22T13:29:46.769Z,2.40
2022-10-22T13:32:29.078Z,2.13
2022-10-22T13:34:56.439Z,2.20
2022-10-22T13:37:22.803Z,2.60
2022-10-22T13:39:49.149Z,2.40
2022-10-22T13:42:15.476Z,2.53
2022-10-22T13:44:41.811Z,2.23
2022-10-22T13:47:19.538Z,2.40
2022-10-22T13:49:46.838Z,2.00
2022-10-22T13:52:17.619Z,2.57
2022-10-22T13:54:43.945Z,2.27
2022-10-22T13:57:10.567Z,2.40
2022-10-22T13:59:36.890Z,2.00
2022-10-22T14:02:06.459Z,2.30
2022-10-22T14:04:33.949Z,2.70
2022-10-22T14:07:02.975Z,2.47
2022-10-22T14:09:30.378Z,2.30
2022-10-22T14:11:56.807Z,2.13
2022-10-22T14:14:23.127Z,2.30
2022-10-22T14:16:49.510Z,2.43
2022-10-22T14:19:16.978Z,2.40
2022-10-22T14:21:43.583Z,2.40
2022-10-22T14:24:12.996Z,2.27
2022-10-22T14:26:39.873Z,3.10
2022-10-22T14:29:10.672Z,1.93
2022-10-22T14:31:42.073Z,2.20
2022-10-22T14:34:13.535Z,2.10
2022-10-22T14:36:39.953Z,2.07
2022-10-22T14:39:06.343Z,2.20
2022-10-22T14:41:32.740Z,2.20
2022-10-22T14:43:59.918Z,2.23
2022-10-22T14:46:26.428Z,2.10
2022-10-22T14:48:52.814Z,2.30
2022-10-22T14:51:20.071Z,2.57
2022-10-22T14:53:46.470Z,2.30
2022-10-22T14:56:13.954Z,2.47
2022-10-22T14:58:40.766Z,1.90
2022-10-22T15:01:07.771Z,1.63
2022-10-22T15:03:34.179Z,2.00
2022-10-22T15:06:00.681Z,2.10
2022-10-22T15:08:27.289Z,1.90
2022-10-22T15:11:04.054Z,2.03
2022-10-22T15:13:30.831Z,2.20
2022-10-22T15:15:57.843Z,2.40
2022-10-22T15:18:24.799Z,2.43
2022-10-22T15:20:58.689Z,2.30
2022-10-22T15:23:25.104Z,2.53
2022-10-22T15:25:51.553Z,2.40
2022-10-22T15:28:17.896Z,2.50
2022-10-22T15:30:44.253Z,1.90
2022-10-22T15:33:11.042Z,2.93
2022-10-22T15:35:37.417Z,2.53
2022-10-22T15:38:06.519Z,2.53
2022-10-22T15:40:32.964Z,2.50
2022-10-22T15:42:59.287Z,3.30
2022-10-22T15:45:25.810Z,2.87
2022-10-22T15:47:52.150Z,2.17
2022-10-22T15:50:18.478Z,2.10
2022-10-22T15:52:44.914Z,2.20
2022-10-22T15:55:14.651Z,2.50
2022-10-22T15:57:41.340Z,1.90
2022-10-22T16:00:08.523Z,2.20
2022-10-22T16:02:34.883Z,2.40
2022-10-22T16:05:01.305Z,2.80
2022-10-22T16:07:27.651Z,2.20
2022-10-22T16:09:58.238Z,2.63
2022-10-22T16:12:24.627Z,2.33
2022-10-22T16:14:51.328Z,2.43
2022-10-22T16:17:17.929Z,2.47
2022-10-22T16:19:44.291Z,2.90
2022-10-22T16:22:11.585Z,2.47
2022-10-22T16:24:41.212Z,3.07
2022-10-22T16:27:08.346Z,3.00
2022-10-22T16:29:36.558Z,3.70
2022-10-22T16:32:02.894Z,3.00
2022-10-22T16:34:29.314Z,3.57
2022-10-22T16:36:57.017Z,3.33
2022-10-22T16:39:23.878Z,3.23
2022-10-22T16:41:50.287Z,3.03
2022-10-22T16:44:16.692Z,3.70
2022-10-22T16:46:43.093Z,3.80
2022-10-22T16:49:09.511Z,3.97
2022-10-22T16:51:35.848Z,3.70
2022-10-22T16:54:03.663Z,3.70
2022-10-22T16:56:32.075Z,4.13
2022-10-22T16:58:58.897Z,3.50
2022-10-22T17:01:27.530Z,3.90
2022-10-22T17:03:56.757Z,3.43
2022-10-22T17:06:24.158Z,4.70
2022-10-22T17:08:50.550Z,3.87
2022-10-22T17:11:19.063Z,28.67
2022-10-22T17:13:46.853Z,4.80
2022-10-22T17:16:14.819Z,3.97
2022-10-22T17:18:41.821Z,4.80
2022-10-22T17:21:09.014Z,4.27
2022-10-22T17:23:35.357Z,4.70
2022-10-22T17:26:03.512Z,4.03
2022-10-22T17:28:29.895Z,4.97
2022-10-22T17:31:06.630Z,4.90
2022-10-22T17:33:33.492Z,4.83
2022-10-22T17:35:59.906Z,4.50
2022-10-22T17:38:26.623Z,5.00
2022-10-22T17:40:53.003Z,4.63
2022-10-22T17:43:19.534Z,4.70
2022-10-22T17:45:45.953Z,4.60
2022-10-22T17:48:12.351Z,4.63
2022-10-22T17:50:44.034Z,4.47
2022-10-22T17:53:13.275Z,4.63
2022-10-22T17:55:39.679Z,5.00
2022-10-22T17:58:06.035Z,5.30
2022-10-22T18:00:33.434Z,4.83
2022-10-22T18:03:00.706Z,5.73
2022-10-22T18:05:27.635Z,5.07
2022-10-22T18:07:55.148Z,5.10
2022-10-22T18:10:21.523Z,5.10
2022-10-22T18:12:47.850Z,6.07
2022-10-22T18:15:14.243Z,4.97
2022-10-22T18:17:41.574Z,5.40
2022-10-22T18:20:08.564Z,5.57
2022-10-22T18:22:35.522Z,5.50
2022-10-22T18:25:01.869Z,5.60
2022-10-22T18:27:28.219Z,6.07
2022-10-22T18:29:55.607Z,6.30
2022-10-22T18:32:22.034Z,5.90
2022-10-22T18:34:48.486Z,5.00
2022-10-22T18:37:14.862Z,5.87
2022-10-22T18:39:41.320Z,5.37
2022-10-22T18:42:07.800Z,5.63
2022-10-22T18:44:34.617Z,4.70
2022-10-22T18:47:00.971Z,5.63
2022-10-22T18:49:27.331Z,4.67
2022-10-22T18:51:53.759Z,5.13
2022-10-22T18:54:23.197Z,5.30
2022-10-22T18:56:50.463Z,4.70
2022-10-22T18:59:17.999Z,5.20
2022-10-22T19:01:44.431Z,6.37
2022-10-22T19:04:11.796Z,4.90
2022-10-22T19:06:40.695Z,5.67
2022-10-22T19:09:09.628Z,6.20
2022-10-22T19:11:36.311Z,6.00
2022-10-22T19:14:03.032Z,5.60
2022-10-22T19:16:29.449Z,5.77
2022-10-22T19:19:03.452Z,5.20
2022-10-22T19:21:30.116Z,5.70
2022-10-22T19:24:00.173Z,6.13
2022-10-22T19:26:27.791Z,6.00
2022-10-22T19:28:54.544Z,5.23
2022-10-22T19:31:22.052Z,5.57
2022-10-22T19:33:48.754Z,5.83
2022-10-22T19:36:16.243Z,6.50
2022-10-22T19:38:43.656Z,5.80
2022-10-22T19:41:12.513Z,5.87
2022-10-22T19:43:39.320Z,5.50
2022-10-22T19:46:06.150Z,5.97
2022-10-22T19:48:32.557Z,5.57
2022-10-22T19:51:00.130Z,6.03
2022-10-22T19:53:26.499Z,6.27
2022-10-22T19:55:52.903Z,5.97
2022-10-22T19:58:19.365Z,5.70
2022-10-22T20:00:45.793Z,5.67
2022-10-22T20:03:14.313Z,6.13
2022-10-22T20:05:42.646Z,6.20
2022-10-22T20:08:09.951Z,6.73
2022-10-22T20:10:36.374Z,6.37
2022-10-22T20:13:02.863Z,5.87
2022-10-22T20:15:31.047Z,6.40
2022-10-22T20:17:57.418Z,5.90
2022-10-22T20:20:26.458Z,6.13
2022-10-22T20:22:52.967Z,6.33
2022-10-22T20:25:19.319Z,6.57
2022-10-22T20:27:45.682Z,6.90
2022-10-22T20:30:12.297Z,6.50
2022-10-22T20:32:39.360Z,6.47
2022-10-22T20:35:06.670Z,6.57
2022-10-22T20:37:33.464Z,6.30
2022-10-22T20:39:59.814Z,6.77
2022-10-22T20:42:26.161Z,6.17
2022-10-22T20:44:52.473Z,6.73
2022-10-22T20:47:18.841Z,6.07
2022-10-22T20:49:45.191Z,6.63
2022-10-22T20:52:11.536Z,6.07
2022-10-22T20:54:41.490Z,6.13
2022-10-22T20:57:08.327Z,6.67
2022-10-22T20:59:35.184Z,6.77
2022-10-22T21:02:02.059Z,6.67
2022-10-22T21:04:28.783Z,6.43
2022-10-22T21:06:57.143Z,6.50
2022-10-22T21:09:23.775Z,7.03
2022-10-22T21:11:50.822Z,6.50
2022-10-22T21:14:19.829Z,7.13
2022-10-22T21:16:49.310Z,8.00
2022-10-22T21:19:16.326Z,7.77
2022-10-22T21:21:42.691Z,7.17
2022-10-22T21:24:09.136Z,9.00
2022-10-22T21:26:39.087Z,8.17
2022-10-22T21:29:05.440Z,8.53
2022-10-22T21:31:31.772Z,7.93
2022-10-22T21:33:58.178Z,8.77
2022-10-22T21:36:25.103Z,7.77
2022-10-22T21:38:52.155Z,8.73
2022-10-22T21:41:19.430Z,9.20
2022-10-22T21:43:46.161Z,8.90
2022-10-22T21:46:16.628Z,8.40
2022-10-22T21:48:43.007Z,8.50
2022-10-22T21:51:11.240Z,8.70
2022-10-22T21:53:37.954Z,15.10
2022-10-22T21:56:04.777Z,9.77
2022-10-22T21:58:31.299Z,8.83
2022-10-22T22:00:58.051Z,8.20
2022-10-22T22:03:24.899Z,8.40
2022-10-22T22:05:56.548Z,8.40
2022-10-22T22:08:22.864Z,7.80
2022-10-22T22:10:49.217Z,7.97
2022-10-22T22:13:17.258Z,8.00
2022-10-22T22:15:43.602Z,9.30
2022-10-22T22:18:09.918Z,8.27
2022-10-22T22:20:36.735Z,8.30
2022-10-22T22:23:03.129Z,8.40
2022-10-22T22:25:29.472Z,8.63
2022-10-22T22:27:55.799Z,8.73
2022-10-22T22:30:22.138Z,9.30
2022-10-22T22:32:48.489Z,8.77
2022-10-22T22:35:14.834Z,9.27
2022-10-22T22:37:41.518Z,9.13
2022-10-22T22:40:08.260Z,9.30
2022-10-22T22:42:34.578Z,8.70
2022-10-22T22:45:00.919Z,8.43
2022-10-22T22:47:27.237Z,8.60
2022-10-22T22:49:53.578Z,8.77
2022-10-22T22:54:47.647Z,9.03
2022-10-22T22:57:14.394Z,10.60
2022-10-22T22:59:40.896Z,8.63
2022-10-22T23:02:07.264Z,8.43
2022-10-22T23:04:33.662Z,9.03
2022-10-22T23:06:59.988Z,8.80
2022-10-22T23:09:26.349Z,8.43
2022-10-22T23:11:52.740Z,10.00
2022-10-22T23:14:19.794Z,9.13
2022-10-22T23:16:48.470Z,9.03
2022-10-22T23:19:16.010Z,10.03
2022-10-22T23:21:44.873Z,8.80
2022-10-22T23:24:12.602Z,9.33
2022-10-22T23:26:40.399Z,10.03
2022-10-22T23:29:08.132Z,10.37
2022-10-22T23:31:34.640Z,10.90
2022-10-22T23:34:01.418Z,9.97
2022-10-22T23:36:27.829Z,10.10
2022-10-22T23:38:54.588Z,10.40
2022-10-22T23:41:21.113Z,10.67
2022-10-22T23:43:47.458Z,10.40
2022-10-22T23:46:13.926Z,10.80
2022-10-22T23:48:40.483Z,10.53
2022-10-22T23:51:07.717Z,12.07
2022-10-22T23:53:34.066Z,11.87
2022-10-22T23:56:04.131Z,12.00
2022-10-22T23:58:30.463Z,12.97
